• Join FlightAware (Why Join?)
  • Login
  • US Flag 
12:31AM EDT


 

Airport Tracker/Info


-or-


 

Live Flight TrackerFlight Track Log ✈ ASQ4219 ✈ 27-Jul-2013 ✈ KDEN - KTYS

Flight Track Log - Related Links

Times and Time Zones

All times are in EDT time to prevent confusion due to time zone crossing. See the ASQ4219 flight status page for this flight to view local times or setup timezone preferences in your user account.

Time Position Orientation Groundspeed Altitude Reporting Facility
EDT Latitude Longitude Course Direction KTS MPH feet Rate Location/Type
06:59PM 39.8667 -104.5667 95° East 198 228 7,300  Level Denver TRACON
06:59PM 39.8547 -104.5292 113° Southeast 209 241 8,100 1,500 Climbing Denver Center
07:00PM 39.8272 -104.4461 113° Southeast 247 284 9,700 1,620 Climbing Denver Center
07:01PM 39.7895 -104.1739 96° East  Level FlightAware Approximate
07:01PM 39.8075 -104.3311 103° East 306 352 11,500  Level Denver Center
07:02PM 39.7667 -104.0105 90° East  Level FlightAware Approximate
07:02PM 39.7956 -104.2172 98° East 320 368 13,100  Level Denver Center
07:03PM 39.7536 -103.8453 99° East  Level FlightAware Approximate
07:03PM 39.7817 -104.0997 99° East 329 379 14,900  Level Denver Center
07:04PM 39.7289 -103.6828 95° East  Level FlightAware Approximate
07:04PM 39.7683 -103.9675 97° East 344 396 16,800  Level Denver Center
07:05PM 39.7533 -103.8472 99° East 340 391 18,400 1,620 Climbing Denver Center
07:06PM 39.7400 -103.7211 98° East 342 394 20,200 1,560 Climbing Denver Center
07:07PM 39.7303 -103.5994 96° East 338 389 21,700 1,260 Climbing Denver Center
07:08PM 39.7206 -103.4719 96° East 352 405 22,900 1,080 Climbing Denver Center
07:09PM 39.7089 -103.3369 96° East 370 426 24,000 1,020 Climbing Denver Center
07:11PM 39.6972 -103.1961 96° East 391 450 25,000 960 Climbing Denver Center
07:12PM 39.6856 -103.0519 96° East 402 463 26,000 1,020 Climbing Denver Center
07:13PM 39.6711 -102.8736 96° East 413 475 27,200 1,020 Climbing Denver Center
07:14PM 39.6578 -102.7222 96° East 422 486 28,200 1,020 Climbing Denver Center
07:15PM 39.6450 -102.5789 97° East 427 491 29,400 1,260 Climbing Denver Center
07:16PM 39.6300 -102.4114 97° East 420 483 30,900 1,200 Climbing Denver Center
07:17PM 39.6169 -102.2672 97° East 422 486 31,900 960 Climbing Denver Center
07:18PM 39.6014 -102.0983 97° East 422 486 33,000 960 Climbing Denver Center
07:19PM 39.5894 -101.9517 96° East 427 491 33,900 840 Climbing Denver Center
07:20PM 39.5750 -101.7825 96° East 425 489 34,800 480 Climbing Denver Center
07:21PM 39.5636 -101.6331 96° East 433 498 35,000 60 Climbing Denver Center
07:22PM 39.5500 -101.4533 96° East 448 516 35,000  Level Denver Center
07:23PM 39.5508 -101.3014 90° East 443 510 35,000  Level Denver Center
07:24PM 39.5514 -101.1472 90° East 449 517 35,000  Level Denver Center
07:25PM 39.5522 -100.9708 90° East 443 510 35,000  Level Denver Center
07:26PM 39.5536 -100.8194 89° East 441 507 35,000  Level Denver Center
07:27PM 39.5558 -100.6436 89° East 440 506 35,000  Level Denver Center
07:28PM 39.5567 -100.4925 90° East 441 507 35,000  Level Denver Center
07:29PM 39.5544 -100.3167 91° East 439 505 35,000  Level Denver Center
07:30PM 39.5522 -100.1681 91° East 434 499 35,000  Level Denver Center
07:31PM 39.5392 -99.9917 95° East 443 510 35,000  Level Denver Center
07:32PM 39.5169 -99.8361 100° East 434 499 35,000  Level Denver Center
07:33PM 39.4931 -99.6808 101° East 435 501 35,000  Level Denver Center
07:34PM 39.4697 -99.5261 101° East 438 504 35,000  Level Denver Center
07:35PM 39.4450 -99.3769 102° East 441 507 35,000  Level Denver Center
07:36PM 39.4192 -99.1975 101° East 451 519 35,000  Level Denver Center
07:37PM 39.3939 -99.0425 102° East 457 526 35,000  Level Denver Center
07:38PM 39.3706 -98.8947 101° East 465 535 35,000  Level Kansas City Center
07:39PM 39.3422 -98.7158 102° East 456 525 35,000  Level Kansas City Center
07:40PM 39.3172 -98.5519 101° East 457 526 35,000  Level Kansas City Center
07:41PM 39.2928 -98.3994 102° East 460 529 35,000  Level Kansas City Center
07:42PM 39.2658 -98.2400 102° East 458 527 35,000  Level Kansas City Center
07:43PM 39.2383 -98.0753 102° East 455 524 35,000  Level Kansas City Center
07:44PM 39.2089 -97.9039 102° East 461 531 35,000  Level Kansas City Center
07:45PM 39.1828 -97.7383 101° East 459 528 35,000  Level Kansas City Center
07:46PM 39.1561 -97.5831 102° East 464 534 35,000  Level Kansas City Center
07:47PM 39.1247 -97.4011 102° East 466 536 35,000  Level Kansas City Center
07:48PM 39.0981 -97.2436 102° East 469 540 35,000  Level Kansas City Center
07:49PM 39.0658 -97.0608 103° East 470 541 35,000  Level Kansas City Center
07:50PM 39.0383 -96.9042 103° East 470 541 35,000  Level Kansas City Center
07:51PM 39.0117 -96.7489 102° East 467 537 35,000  Level Kansas City Center
07:52PM 38.9778 -96.5617 103° East 468 539 35,000  Level Kansas City Center
07:53PM 38.9497 -96.4131 104° East 465 535 35,000  Level Kansas City Center
07:55PM 38.9186 -96.2333 102° East 463 533 35,000  Level Kansas City Center
07:56PM 38.8881 -96.0817 104° East 460 529 35,000  Level Kansas City Center
07:57PM 38.8603 -95.9314 103° East 454 522 35,000  Level Kansas City Center
07:58PM 38.8286 -95.7575 103° East 452 520 35,000  Level Kansas City Center
07:59PM 38.8008 -95.6106 104° East 447 514 35,000  Level Kansas City Center
08:00PM 38.7686 -95.4400 104° East 444 511 35,000  Level Kansas City Center
08:01PM 38.7394 -95.2950 104° East 440 506 35,000  Level Kansas City Center
08:02PM 38.7078 -95.1269 104° East 438 504 35,000  Level Kansas City Center
08:03PM 38.6800 -94.9844 104° East 434 499 35,000  Level Kansas City Center
08:04PM 38.6519 -94.8425 104° East 432 497 35,000  Level Kansas City Center
08:05PM 38.6200 -94.6794 104° East 427 491 35,000  Level Kansas City Center
08:06PM 38.5919 -94.5394 104° East 426 490 35,000  Level Kansas City Center
08:07PM 38.5589 -94.3742 104° East 431 496 35,000  Level Kansas City Center
08:08PM 38.5297 -94.2319 105° East 433 498 35,000  Level Kansas City Center
08:09PM 38.5003 -94.0878 105° East 437 503 35,000  Level Kansas City Center
08:10PM 38.4678 -93.9369 105° East 442 509 35,000  Level Kansas City Center
08:11PM 38.4364 -93.7844 105° East 444 511 35,000  Level Kansas City Center
08:12PM 38.4042 -93.6311 105° East 447 514 35,000  Level Kansas City Center
08:13PM 38.3667 -93.4444 104° East 452 520 35,000  Level Kansas City Center
08:14PM 38.3333 -93.2889 105° East 453 521 35,000  Level Kansas City Center
08:15PM 38.3011 -93.1331 105° East 454 522 35,000  Level Kansas City Center
08:16PM 38.2689 -92.9767 105° East 453 521 35,000  Level Kansas City Center
08:17PM 38.2356 -92.8208 105° East 455 524 35,000  Level Kansas City Center
08:18PM 38.2019 -92.6639 105° East 457 526 35,000  Level Kansas City Center
08:19PM 38.1728 -92.5247 105° East 453 521 35,000  Level Kansas City Center
08:20PM 38.1333 -92.3417 105° East 450 518 35,000  Level Kansas City Center
08:21PM 38.0981 -92.1881 106° East 453 521 35,000  Level Kansas City Center
08:22PM 38.0642 -92.0392 106° East 452 520 35,000  Level Kansas City Center
08:23PM 38.0297 -91.8867 106° East 449 517 35,000  Level Kansas City Center
08:24PM 37.9956 -91.7342 106° East 448 516 35,000  Level Kansas City Center
08:25PM 37.9608 -91.5831 106° East 447 514 35,000  Level Kansas City Center
08:26PM 37.9256 -91.4308 106° East 447 514 35,000  Level Kansas City Center
08:27PM 37.8900 -91.2789 106° East 448 516 35,000  Level Kansas City Center
08:28PM 37.8550 -91.1275 106° East 449 517 35,000  Level Kansas City Center
08:29PM 37.8139 -90.9519 106° East 449 517 35,000  Level Kansas City Center
08:30PM 37.7778 -90.8014 107° East 450 518 35,000  Level Kansas City Center
08:31PM 37.7419 -90.6522 107° East 448 516 35,000  Level Kansas City Center
08:32PM 37.7067 -90.5014 106° East 450 518 35,000  Level Kansas City Center
08:33PM 37.6706 -90.3511 107° East 451 519 35,000  Level Kansas City Center
08:34PM 37.6342 -90.2019 107° East 449 517 35,000  Level Kansas City Center
08:35PM 37.5978 -90.0511 107° East 450 518 35,000  Level Kansas City Center
08:36PM 37.5547 -89.8781 107° East 451 519 35,000  Level Kansas City Center
08:37PM 37.5156 -89.7272 108° East 452 520 35,000  Level Kansas City Center
08:38PM 37.4758 -89.5767 108° East 451 519 35,000  Level Kansas City Center
08:39PM 37.4356 -89.4294 109° East 448 516 35,000  Level Kansas City Center
08:40PM 37.3953 -89.2800 109° East 448 516 35,000  Level Kansas City Center
08:41PM 37.3542 -89.1314 109° East 447 514 35,000  Level Kansas City Center
08:42PM 37.3247 -89.0214 109° East 441 507 35,000  Level Memphis Center
08:43PM 37.2856 -88.8736 108° East 441 507 35,000  Level Memphis Center
08:44PM 37.2461 -88.7336 109° East 441 507 35,000  Level Memphis Center
08:45PM 37.2067 -88.5911 109° East 435 501 35,000  Level Memphis Center
08:46PM 37.1672 -88.4514 109° East 425 489 35,000  Level Memphis Center
08:47PM 37.1317 -88.3169 108° East 425 489 35,000  Level Memphis Center
08:48PM 37.0875 -88.1700 111° Southeast 419 482 35,000  Level Memphis Center
08:49PM 37.0497 -88.0333 109° East 419 482 35,000  Level Memphis Center
08:50PM 37.0117 -87.9019 110° East 414 476 35,000  Level Memphis Center
08:51PM 36.9781 -87.7833 109° East 404 465 35,000  Level Memphis Center
08:52PM 36.9400 -87.6550 110° East 404 465 35,000  Level Memphis Center
08:53PM 36.9017 -87.5239 110° East 404 465 35,000 -360 Level Memphis Center
08:54PM 36.8653 -87.3931 109° East 404 465 34,300 -960 Descending Memphis Center
08:55PM 36.8244 -87.2569 111° Southeast 409 471 33,100 -1,200 Descending Memphis Center
08:56PM 36.7808 -87.1083 110° East 409 471 32,000 -1,200 Descending Memphis Center
08:57PM 36.7419 -86.9753 110° East 409 471 30,800 -1,200 Descending Memphis Center
08:58PM 36.7053 -86.8528 110° East 397 457 29,700 -1,200 Descending Memphis Center
08:59PM 36.6658 -86.7200 110° East 397 457 28,500 -1,200 Descending Memphis Center
09:00PM 36.6244 -86.5822 110° East 413 475 27,400 -1,260 Descending Memphis Center
09:01PM 36.5825 -86.4472 111° Southeast 421 484 26,000 -1,320 Descending Memphis Center
09:02PM 36.5497 -86.3325 110° East 408 470 24,800 -1,320 Descending Memphis Center
09:03PM 36.5103 -86.2081 111° Southeast 396 456 23,400 -1,500 Descending Memphis Center
09:04PM 36.4800 -86.1056 110° East 390 449 22,100 -1,320 Descending Indianapolis Center
09:05PM 36.4419 -85.9786 110° East 388 447 21,100 -600 Descending Indianapolis Center
09:06PM 36.4022 -85.8536 112° Southeast 386 444 21,000 -60 Descending Indianapolis Center
09:07PM 36.3681 -85.7369 110° East 384 442 21,000  Level Indianapolis Center
09:08PM 36.3278 -85.6119 112° Southeast 387 445 21,000  Level Indianapolis Center
09:09PM 36.2792 -85.4581 111° Southeast 397 457 21,000  Level Indianapolis Center
09:10PM 36.2397 -85.3294 111° Southeast 398 458 21,000 -600 Level Indianapolis Center
09:11PM 36.1992 -85.2011 111° Southeast 398 458 19,900 -1,500 Descending Indianapolis Center
09:12PM 36.1592 -85.0747 111° Southeast 393 452 18,000 -1,920 Descending Indianapolis Center
09:13PM 36.1211 -84.9547 111° Southeast 375 432 16,000 -1,980 Descending Indianapolis Center
09:14PM 36.0767 -84.8147 111° Southeast 370 426 13,600 -1,980 Descending Atlanta Center
09:15PM 36.0397 -84.7064 113° Southeast 358 412 11,700 -1,320 Descending Atlanta Center
09:16PM 36.0089 -84.6086 111° Southeast 332 382 11,000 -360 Descending Atlanta Center
09:17PM 35.9803 -84.5133 110° East 305 351 11,000 -840 Level Atlanta Center
09:18PM 35.9658 -84.4183 101° East 286 329 9,400 -1,800 Descending Atlanta Center
09:19PM 35.9558 -84.3183 97° East 280 322 7,400 -1,620 Descending Atlanta Center
09:20PM 35.9433 -84.2258 99° East 275 316 6,200 -1,200 Descending Atlanta Center
09:21PM 35.9331 -84.1389 98° East 269 310 5,000 -1,080 Descending Atlanta Center
09:22PM 35.9228 -84.0619 99° East 255 293 4,100 -960 Descending Atlanta Center
09:23PM 35.9164 -83.9850 96° East 234 269 3,100 -720 Descending Atlanta Center
09:24PM 35.8872 -83.9361 126° Southeast 182 209 2,700 -420 Descending Atlanta Center